createdAt,value
2022-08-14T00:01:59.345Z,17.00
2022-08-14T00:04:34.902Z,17.00
2022-08-14T00:07:08.329Z,17.00
2022-08-14T00:09:55.876Z,17.00
2022-08-14T00:12:33.417Z,17.00
2022-08-14T00:15:09.493Z,17.00
2022-08-14T00:17:47.556Z,17.00
2022-08-14T00:20:24.089Z,17.00
2022-08-14T00:23:16.545Z,17.00
2022-08-14T00:25:53.941Z,17.00
2022-08-14T00:28:35.342Z,17.00
2022-08-14T00:31:05.634Z,17.10
2022-08-14T00:33:51.565Z,17.10
2022-08-14T00:36:35.083Z,17.00
2022-08-14T00:39:09.274Z,16.90
2022-08-14T00:41:38.760Z,16.80
2022-08-14T00:44:08.114Z,16.80
2022-08-14T00:46:37.745Z,16.80
2022-08-14T00:49:05.919Z,16.70
2022-08-14T00:51:37.691Z,16.70
2022-08-14T00:54:16.759Z,16.70
2022-08-14T00:56:50.616Z,16.80
2022-08-14T00:59:18.730Z,17.00
2022-08-14T01:01:48.601Z,17.00
2022-08-14T01:04:38.304Z,17.10
2022-08-14T01:07:08.231Z,17.00
2022-08-14T01:09:39.521Z,17.00
2022-08-14T01:12:08.385Z,17.00
2022-08-14T01:14:36.491Z,17.00
2022-08-14T01:17:05.692Z,17.00
2022-08-14T01:19:54.501Z,17.00
2022-08-14T01:22:26.822Z,16.90
2022-08-14T01:24:57.893Z,17.00
2022-08-14T01:27:28.599Z,16.90
2022-08-14T01:30:04.532Z,16.90
2022-08-14T01:32:37.619Z,16.80
2022-08-14T01:35:18.770Z,16.80
2022-08-14T01:38:00.162Z,16.80
2022-08-14T01:40:33.127Z,16.70
2022-08-14T01:43:05.117Z,16.60
2022-08-14T01:45:40.549Z,16.50
2022-08-14T01:48:13.267Z,16.50
2022-08-14T01:50:42.626Z,16.50
2022-08-14T01:53:13.721Z,16.50
2022-08-14T01:55:42.943Z,16.50
2022-08-14T01:58:20.028Z,16.50
2022-08-14T02:00:58.561Z,16.60
2022-08-14T02:03:30.998Z,16.50
2022-08-14T02:06:03.999Z,16.50
2022-08-14T02:08:53.159Z,16.50
2022-08-14T02:11:24.429Z,16.50
2022-08-14T02:13:59.612Z,16.40
2022-08-14T02:16:39.168Z,16.50
2022-08-14T02:19:11.141Z,16.50
2022-08-14T02:21:46.975Z,16.50
2022-08-14T02:24:39.698Z,16.50
2022-08-14T02:28:24.819Z,16.50
2022-08-14T02:30:02.090Z,16.50
2022-08-14T02:32:36.497Z,16.40
2022-08-14T02:35:10.242Z,16.30
2022-08-14T02:37:48.343Z,16.30
2022-08-14T02:40:18.979Z,16.30
2022-08-14T02:42:54.649Z,16.20
2022-08-14T02:45:25.654Z,16.20
2022-08-14T02:48:02.156Z,16.20
2022-08-14T02:50:33.768Z,16.20
2022-08-14T02:53:02.858Z,16.20
2022-08-14T02:55:33.264Z,16.20
2022-08-14T02:58:03.080Z,16.10
2022-08-14T03:00:35.494Z,16.10
2022-08-14T03:03:08.277Z,16.00
2022-08-14T03:05:41.740Z,15.90
2022-08-14T03:08:15.778Z,15.80
2022-08-14T03:10:49.160Z,15.70
2022-08-14T03:13:19.240Z,15.60
2022-08-14T03:15:51.006Z,15.60
2022-08-14T03:18:32.074Z,15.70
2022-08-14T03:21:05.438Z,15.70
2022-08-14T03:23:38.081Z,15.70
2022-08-14T03:26:12.895Z,15.80
2022-08-14T03:28:50.142Z,15.80
2022-08-14T03:31:22.097Z,15.70
2022-08-14T03:33:54.285Z,15.60
2022-08-14T03:37:50.798Z,15.50
2022-08-14T03:39:22.972Z,15.50
2022-08-14T03:41:56.189Z,15.40
2022-08-14T03:45:19.257Z,15.30
2022-08-14T03:47:16.789Z,15.20
2022-08-14T03:49:50.193Z,15.10
2022-08-14T03:52:38.981Z,15.00
2022-08-14T03:55:08.837Z,14.90
2022-08-14T03:57:40.484Z,14.90
2022-08-14T04:00:13.846Z,14.80
2022-08-14T04:03:02.321Z,14.80
2022-08-14T04:05:38.114Z,14.80
2022-08-14T04:08:30.157Z,14.70
2022-08-14T04:11:01.182Z,14.70
2022-08-14T04:13:33.931Z,14.60
2022-08-14T04:16:05.059Z,14.60
2022-08-14T04:18:34.912Z,14.60
2022-08-14T04:21:03.888Z,14.60
2022-08-14T04:23:33.265Z,14.70
2022-08-14T04:26:03.111Z,14.70
2022-08-14T04:29:07.768Z,14.70
2022-08-14T04:31:25.050Z,14.80
2022-08-14T04:34:17.100Z,14.80
2022-08-14T04:37:07.453Z,14.90
2022-08-14T04:39:56.802Z,15.00
2022-08-14T04:42:47.392Z,15.10
2022-08-14T04:45:23.246Z,15.20
2022-08-14T04:48:09.969Z,15.40
2022-08-14T04:50:44.554Z,15.60
2022-08-14T04:53:15.233Z,15.70
2022-08-14T04:55:50.022Z,15.90
2022-08-14T04:58:32.561Z,16.20
2022-08-14T05:01:06.188Z,16.90
2022-08-14T05:03:41.110Z,18.10
2022-08-14T05:06:35.015Z,19.20
2022-08-14T05:09:00.607Z,20.20
2022-08-14T05:11:33.414Z,20.80
2022-08-14T05:14:34.283Z,21.30
2022-08-14T05:16:59.269Z,21.90
2022-08-14T05:19:29.971Z,22.40
2022-08-14T05:22:17.033Z,22.80
2022-08-14T05:24:49.616Z,23.10
2022-08-14T05:27:22.789Z,23.40
2022-08-14T05:29:53.365Z,23.60
2022-08-14T05:32:23.636Z,23.60
2022-08-14T05:34:58.167Z,23.00
2022-08-14T05:37:28.144Z,23.10
2022-08-14T05:39:56.528Z,23.10
2022-08-14T05:42:29.328Z,23.40
2022-08-14T05:45:00.488Z,23.20
2022-08-14T05:47:39.073Z,22.80
2022-08-14T05:50:17.372Z,22.70
2022-08-14T05:52:48.459Z,23.00
2022-08-14T05:55:22.002Z,23.40
2022-08-14T05:57:53.201Z,23.90
2022-08-14T06:00:28.361Z,23.90
2022-08-14T06:03:00.503Z,24.00
2022-08-14T06:05:29.589Z,24.00
2022-08-14T06:07:58.253Z,24.00
2022-08-14T06:10:28.180Z,24.40
2022-08-14T06:12:57.974Z,24.30
2022-08-14T06:15:29.920Z,24.10
2022-08-14T06:18:01.767Z,23.40
2022-08-14T06:20:30.915Z,23.50
2022-08-14T06:23:00.198Z,23.80
2022-08-14T06:25:28.831Z,24.30
2022-08-14T06:28:02.069Z,24.80
2022-08-14T06:30:46.475Z,24.90
2022-08-14T06:33:18.281Z,24.70
2022-08-14T06:35:47.282Z,25.10
2022-08-14T06:38:19.954Z,25.00
2022-08-14T06:40:50.334Z,24.60
2022-08-14T06:43:20.227Z,25.00
2022-08-14T06:45:54.450Z,24.90
2022-08-14T06:48:25.321Z,24.90
2022-08-14T06:50:55.208Z,25.00
2022-08-14T06:53:28.216Z,25.20
2022-08-14T06:56:00.737Z,25.10
2022-08-14T06:58:32.319Z,26.00
2022-08-14T07:01:24.795Z,26.10
2022-08-14T07:04:22.611Z,26.50
2022-08-14T07:06:51.565Z,26.70
2022-08-14T07:09:24.237Z,26.20
2022-08-14T07:11:52.574Z,26.10
2022-08-14T07:14:20.549Z,26.00
2022-08-14T07:16:48.831Z,26.20
2022-08-14T07:19:21.121Z,26.20
2022-08-14T07:21:50.162Z,26.10
2022-08-14T07:24:21.836Z,26.80
2022-08-14T07:26:54.229Z,27.00
2022-08-14T07:29:26.323Z,27.30
2022-08-14T07:31:57.033Z,27.60
2022-08-14T07:34:40.638Z,27.50
2022-08-14T07:37:09.917Z,27.70
2022-08-14T07:39:38.554Z,27.60
2022-08-14T07:42:08.016Z,28.30
2022-08-14T07:44:46.454Z,28.70
2022-08-14T07:47:17.123Z,29.00
2022-08-14T07:49:58.788Z,29.30
2022-08-14T07:52:40.546Z,29.20
2022-08-14T07:55:11.921Z,28.60
2022-08-14T07:57:40.736Z,28.50
2022-08-14T08:00:30.987Z,28.30
2022-08-14T08:03:00.603Z,28.60
2022-08-14T08:05:30.201Z,28.80
2022-08-14T08:07:59.054Z,28.30
2022-08-14T08:10:57.236Z,28.40
2022-08-14T08:13:24.138Z,28.20
2022-08-14T08:15:54.769Z,28.10
2022-08-14T08:18:27.629Z,27.90
2022-08-14T08:21:00.205Z,28.10
2022-08-14T08:23:43.466Z,27.60
2022-08-14T08:26:19.116Z,26.90
2022-08-14T08:28:57.804Z,26.20
2022-08-14T08:31:34.897Z,25.50
2022-08-14T08:34:06.433Z,25.20
2022-08-14T08:36:42.984Z,25.30
2022-08-14T08:39:22.847Z,25.30
2022-08-14T08:41:53.868Z,25.10
2022-08-14T08:44:33.055Z,25.20
2022-08-14T08:47:06.159Z,25.30
2022-08-14T08:49:48.489Z,25.60
2022-08-14T08:52:25.294Z,25.70
2022-08-14T08:54:59.290Z,26.00
2022-08-14T08:57:35.785Z,26.40
2022-08-14T09:00:25.683Z,26.30
2022-08-14T09:02:57.455Z,26.40
2022-08-14T09:05:26.342Z,26.30
2022-08-14T09:07:56.828Z,26.50
2022-08-14T09:10:27.205Z,26.60
2022-08-14T09:12:56.161Z,26.70
2022-08-14T09:15:24.371Z,26.70
2022-08-14T09:17:54.552Z,26.60
2022-08-14T09:20:29.516Z,26.70
2022-08-14T09:23:00.815Z,26.60
2022-08-14T09:26:00.513Z,26.50
2022-08-14T09:28:19.225Z,26.60
2022-08-14T09:30:54.035Z,26.40
2022-08-14T09:33:56.502Z,26.70
2022-08-14T09:37:01.252Z,26.70
2022-08-14T09:39:43.885Z,26.80
2022-08-14T09:42:33.500Z,26.90
2022-08-14T09:45:15.143Z,27.00
2022-08-14T09:47:46.849Z,27.00
2022-08-14T09:50:25.682Z,27.10
2022-08-14T09:52:57.387Z,27.00
2022-08-14T09:55:33.383Z,27.00
2022-08-14T09:58:15.050Z,27.00
2022-08-14T10:00:53.928Z,27.20
2022-08-14T10:03:33.826Z,27.30
2022-08-14T10:06:07.264Z,27.20
2022-08-14T10:08:44.841Z,27.10
2022-08-14T10:11:24.686Z,27.10
2022-08-14T10:14:21.140Z,27.00
2022-08-14T10:16:59.489Z,27.30
2022-08-14T10:19:29.015Z,27.40
2022-08-14T10:23:15.311Z,27.20
2022-08-14T10:24:51.846Z,27.20
2022-08-14T10:27:24.312Z,27.30
2022-08-14T10:29:54.383Z,27.40
2022-08-14T10:32:36.121Z,27.50
2022-08-14T10:35:14.572Z,27.50
2022-08-14T10:37:48.197Z,27.70
2022-08-14T10:40:37.861Z,27.80
2022-08-14T10:43:26.130Z,27.90
2022-08-14T10:46:21.607Z,28.10
2022-08-14T10:48:58.362Z,28.00
2022-08-14T10:51:30.101Z,28.10
2022-08-14T10:54:02.042Z,28.00
2022-08-14T10:56:51.756Z,27.90
2022-08-14T10:59:23.380Z,27.90
2022-08-14T11:01:59.903Z,28.00
2022-08-14T11:04:30.267Z,28.00
2022-08-14T11:06:58.723Z,28.10
2022-08-14T11:09:31.645Z,28.20
2022-08-14T11:12:34.535Z,28.30
2022-08-14T11:14:56.358Z,28.40
2022-08-14T11:17:31.728Z,28.40
2022-08-14T11:20:01.917Z,28.50
2022-08-14T11:22:52.730Z,28.60
2022-08-14T11:25:23.427Z,28.80
2022-08-14T11:27:53.945Z,28.80
2022-08-14T11:30:51.438Z,28.80
2022-08-14T11:33:14.152Z,28.70
2022-08-14T11:35:49.711Z,28.50
2022-08-14T11:38:21.688Z,28.50
2022-08-14T11:40:49.762Z,28.30
2022-08-14T11:43:22.631Z,28.40
2022-08-14T11:45:58.683Z,28.50
2022-08-14T11:48:59.177Z,28.50
2022-08-14T11:51:23.747Z,28.60
2022-08-14T11:53:54.256Z,28.80
2022-08-14T11:56:25.796Z,28.90
2022-08-14T11:58:58.617Z,28.90
2022-08-14T12:01:31.160Z,28.80
2022-08-14T12:04:32.710Z,28.80
2022-08-14T12:07:00.760Z,29.10
2022-08-14T12:09:31.438Z,29.10
2022-08-14T12:11:59.582Z,29.00
2022-08-14T12:14:34.691Z,29.00
2022-08-14T12:17:12.438Z,29.00
2022-08-14T12:19:51.032Z,28.90
2022-08-14T12:22:34.500Z,29.00
2022-08-14T12:25:07.127Z,29.00
2022-08-14T12:27:53.459Z,29.10
2022-08-14T12:30:39.351Z,29.20
2022-08-14T12:33:25.686Z,29.30
2022-08-14T12:35:58.474Z,29.30
2022-08-14T12:38:35.962Z,29.30
2022-08-14T12:41:06.410Z,29.30
2022-08-14T12:43:48.074Z,29.30
2022-08-14T12:46:26.920Z,29.30
2022-08-14T12:48:58.494Z,29.30
2022-08-14T12:51:28.245Z,29.30
2022-08-14T12:54:00.068Z,29.30
2022-08-14T12:56:34.144Z,29.40
2022-08-14T12:59:03.359Z,29.40
2022-08-14T13:01:59.477Z,29.30
2022-08-14T13:04:22.791Z,29.30
2022-08-14T13:06:52.815Z,29.20
2022-08-14T13:09:23.252Z,29.20
2022-08-14T13:11:59.144Z,29.10
2022-08-14T13:14:44.240Z,29.20
2022-08-14T13:17:12.938Z,29.30
2022-08-14T13:19:45.608Z,29.40
2022-08-14T13:22:32.018Z,29.50
2022-08-14T13:25:05.591Z,29.50
2022-08-14T13:27:39.148Z,29.60
2022-08-14T13:30:21.203Z,29.60
2022-08-14T13:32:54.202Z,29.60
2022-08-14T13:35:23.673Z,29.60
2022-08-14T13:37:53.487Z,29.50
2022-08-14T13:40:26.379Z,29.50
2022-08-14T13:42:57.468Z,29.60
2022-08-14T13:45:33.803Z,29.70
2022-08-14T13:48:18.290Z,29.70
2022-08-14T13:51:04.736Z,29.70
2022-08-14T13:53:38.212Z,29.80
2022-08-14T13:56:14.598Z,29.60
2022-08-14T13:58:46.943Z,29.50
2022-08-14T14:01:19.025Z,29.40
2022-08-14T14:03:52.650Z,29.30
2022-08-14T14:06:25.585Z,29.30
2022-08-14T14:08:59.176Z,29.50
2022-08-14T14:11:30.122Z,29.40
2022-08-14T14:14:00.507Z,29.50
2022-08-14T14:16:30.874Z,29.40
2022-08-14T14:19:08.660Z,29.50
2022-08-14T14:21:40.750Z,29.40
2022-08-14T14:24:15.147Z,29.60
2022-08-14T14:26:47.180Z,29.70
2022-08-14T14:29:16.791Z,29.70
2022-08-14T14:31:48.399Z,29.70
2022-08-14T14:34:29.132Z,29.80
2022-08-14T14:37:02.909Z,29.90
2022-08-14T14:39:37.648Z,30.10
2022-08-14T14:42:29.372Z,30.20
2022-08-14T14:45:14.190Z,30.30
2022-08-14T14:47:44.694Z,30.20
2022-08-14T14:50:17.180Z,30.20
2022-08-14T14:52:47.497Z,30.10
2022-08-14T14:55:19.987Z,30.10
2022-08-14T14:57:52.137Z,30.10
2022-08-14T15:00:24.523Z,30.10
2022-08-14T15:02:59.923Z,30.00
2022-08-14T15:05:28.302Z,29.90
2022-08-14T15:07:57.952Z,30.00
2022-08-14T15:10:34.165Z,29.90
2022-08-14T15:13:06.655Z,30.00
2022-08-14T15:15:37.468Z,30.00
2022-08-14T15:18:14.791Z,30.00
2022-08-14T15:20:57.472Z,30.20
2022-08-14T15:23:43.751Z,30.30
2022-08-14T15:26:24.202Z,30.40
2022-08-14T15:29:03.231Z,30.40
2022-08-14T15:31:36.296Z,30.30
2022-08-14T15:34:46.112Z,30.40
2022-08-14T15:37:04.362Z,30.30
2022-08-14T15:39:35.714Z,30.20
2022-08-14T15:42:14.931Z,30.10
2022-08-14T15:44:57.860Z,30.00
2022-08-14T15:47:31.130Z,30.00
2022-08-14T15:50:00.995Z,30.00
2022-08-14T15:52:32.996Z,30.10
2022-08-14T15:55:07.169Z,30.30
2022-08-14T15:57:36.564Z,30.20
2022-08-14T16:00:41.788Z,30.30
2022-08-14T16:03:14.188Z,30.30
2022-08-14T16:05:45.925Z,30.20
2022-08-14T16:08:27.200Z,30.20
2022-08-14T16:10:59.527Z,30.20
2022-08-14T16:13:41.117Z,30.20
2022-08-14T16:16:49.244Z,30.10
2022-08-14T16:19:10.063Z,30.00
2022-08-14T16:22:01.640Z,30.00
2022-08-14T16:24:33.560Z,29.90
2022-08-14T16:27:05.241Z,29.90
2022-08-14T16:29:37.990Z,29.80
2022-08-14T16:32:35.698Z,29.80
2022-08-14T16:34:57.415Z,29.70
2022-08-14T16:37:30.492Z,29.50
2022-08-14T16:40:03.162Z,29.50
2022-08-14T16:43:02.913Z,29.40
2022-08-14T16:45:27.329Z,29.30
2022-08-14T16:47:55.497Z,29.30
2022-08-14T16:50:40.550Z,29.10
2022-08-14T16:53:17.792Z,28.80
2022-08-14T16:55:53.843Z,28.50
2022-08-14T16:58:29.844Z,28.20
2022-08-14T17:01:24.902Z,27.90
2022-08-14T17:03:59.180Z,27.70
2022-08-14T17:06:49.790Z,27.50
2022-08-14T17:09:33.722Z,27.40
2022-08-14T17:12:09.367Z,27.20
2022-08-14T17:15:10.484Z,27.10
2022-08-14T17:17:57.905Z,26.90
2022-08-14T17:20:39.678Z,26.70
2022-08-14T17:23:17.937Z,26.50
2022-08-14T17:25:51.240Z,26.30
2022-08-14T17:28:52.527Z,26.10
2022-08-14T17:31:15.353Z,25.90
2022-08-14T17:33:44.607Z,25.70
2022-08-14T17:36:23.942Z,25.60
2022-08-14T17:39:06.327Z,25.50
2022-08-14T17:42:01.695Z,25.40
2022-08-14T17:44:45.214Z,25.30
2022-08-14T17:47:18.320Z,25.20
2022-08-14T17:49:52.874Z,25.10
2022-08-14T17:52:34.378Z,25.00
2022-08-14T17:55:06.466Z,24.90
2022-08-14T17:57:35.544Z,24.70
2022-08-14T18:00:13.072Z,24.70
2022-08-14T18:02:51.122Z,24.60
2022-08-14T18:05:23.480Z,24.50
2022-08-14T18:08:32.461Z,24.40
2022-08-14T18:11:00.041Z,24.40
2022-08-14T18:13:50.699Z,24.30
2022-08-14T18:16:20.227Z,24.20
2022-08-14T18:18:53.154Z,24.20
2022-08-14T18:21:56.425Z,24.10
2022-08-14T18:24:19.936Z,24.10
2022-08-14T18:27:08.768Z,24.00
2022-08-14T18:29:42.821Z,24.00
2022-08-14T18:32:47.225Z,24.00
2022-08-14T18:35:21.233Z,23.90
2022-08-14T18:37:55.583Z,23.90
2022-08-14T18:40:34.743Z,23.90
2022-08-14T18:43:06.077Z,23.90
2022-08-14T18:45:41.405Z,23.90
2022-08-14T18:48:28.844Z,23.90
2022-08-14T18:51:45.505Z,23.90
2022-08-14T18:54:32.761Z,24.10
2022-08-14T18:57:03.026Z,24.30
2022-08-14T18:59:36.503Z,24.40
2022-08-14T19:02:43.417Z,24.40
2022-08-14T19:05:12.446Z,24.50
2022-08-14T19:07:43.257Z,24.40
2022-08-14T19:10:31.783Z,24.40
2022-08-14T19:13:04.879Z,24.20
2022-08-14T19:15:36.086Z,24.20
2022-08-14T19:18:28.619Z,24.10
2022-08-14T19:20:59.833Z,24.00
2022-08-14T19:23:44.315Z,24.00
2022-08-14T19:26:36.566Z,24.10
2022-08-14T19:29:36.070Z,24.00
2022-08-14T19:32:22.715Z,23.90
2022-08-14T19:34:52.457Z,23.90
2022-08-14T19:37:46.674Z,23.90
2022-08-14T19:40:31.567Z,23.80
2022-08-14T19:43:03.328Z,23.80
2022-08-14T19:45:35.655Z,23.80
2022-08-14T19:48:11.678Z,23.80
2022-08-14T19:50:44.226Z,23.80
2022-08-14T19:53:17.588Z,23.70
2022-08-14T19:55:59.375Z,23.70
2022-08-14T19:58:54.769Z,23.70
2022-08-14T20:01:37.270Z,23.70
2022-08-14T20:04:08.475Z,23.70
2022-08-14T20:06:57.009Z,23.60
2022-08-14T20:11:06.266Z,23.60
2022-08-14T20:12:29.178Z,23.50
2022-08-14T20:15:09.161Z,23.60
2022-08-14T20:17:40.503Z,23.70
2022-08-14T20:20:20.995Z,23.70
2022-08-14T20:23:11.507Z,23.60
2022-08-14T20:25:45.579Z,23.60
2022-08-14T20:28:32.948Z,23.60
2022-08-14T20:31:17.650Z,23.50
2022-08-14T20:34:06.122Z,23.40
2022-08-14T20:36:38.941Z,23.30
2022-08-14T20:39:15.267Z,23.30
2022-08-14T20:41:51.021Z,23.20
2022-08-14T20:44:41.465Z,23.20
2022-08-14T20:47:16.327Z,23.10
2022-08-14T20:49:45.157Z,23.00
2022-08-14T20:52:18.940Z,23.00
2022-08-14T20:54:51.530Z,22.90
2022-08-14T20:57:20.428Z,22.90
2022-08-14T20:59:53.729Z,22.90
2022-08-14T21:02:46.368Z,22.90
2022-08-14T21:05:21.349Z,22.80
2022-08-14T21:07:50.232Z,22.80
2022-08-14T21:10:36.528Z,22.80
2022-08-14T21:14:17.823Z,22.80
2022-08-14T21:16:04.924Z,22.80
2022-08-14T21:18:56.307Z,22.80
2022-08-14T21:21:40.449Z,22.80
2022-08-14T21:24:39.571Z,22.70
2022-08-14T21:27:12.272Z,22.70
2022-08-14T21:29:53.673Z,22.60
2022-08-14T21:32:35.192Z,22.70
2022-08-14T21:35:08.931Z,22.60
2022-08-14T21:37:46.069Z,22.60
2022-08-14T21:40:33.217Z,22.60
2022-08-14T21:43:06.104Z,22.60
2022-08-14T21:45:46.058Z,22.60
2022-08-14T21:48:22.314Z,22.60
2022-08-14T21:51:01.188Z,22.60
2022-08-14T21:53:58.406Z,22.60
2022-08-14T21:56:37.567Z,22.50
2022-08-14T21:59:10.823Z,22.50
2022-08-14T22:02:00.490Z,22.50
2022-08-14T22:04:34.514Z,22.40
2022-08-14T22:07:12.569Z,22.40
2022-08-14T22:09:45.346Z,22.40
2022-08-14T22:12:57.904Z,22.40
2022-08-14T22:15:13.399Z,22.40
2022-08-14T22:17:44.126Z,22.30
2022-08-14T22:20:16.218Z,22.20
2022-08-14T22:22:46.327Z,22.30
2022-08-14T22:25:17.291Z,22.30
2022-08-14T22:27:55.318Z,22.30
2022-08-14T22:30:25.169Z,22.20
2022-08-14T22:32:56.646Z,22.20
2022-08-14T22:35:26.325Z,22.20
2022-08-14T22:38:35.036Z,22.20
2022-08-14T22:41:07.868Z,22.10
2022-08-14T22:43:35.035Z,22.10
2022-08-14T22:46:06.186Z,22.00
2022-08-14T22:48:43.048Z,22.00
2022-08-14T22:51:13.411Z,21.90
2022-08-14T22:53:44.891Z,21.90
2022-08-14T22:56:20.110Z,21.90
2022-08-14T22:58:53.997Z,21.80
2022-08-14T23:01:55.621Z,21.70
2022-08-14T23:04:34.741Z,21.70
2022-08-14T23:07:21.745Z,21.60
2022-08-14T23:09:56.446Z,21.50
2022-08-14T23:12:27.812Z,21.30
2022-08-14T23:14:56.125Z,21.20
2022-08-14T23:17:24.219Z,21.00
2022-08-14T23:19:56.363Z,20.90
2022-08-14T23:22:26.068Z,20.70
2022-08-14T23:24:56.728Z,20.60
2022-08-14T23:27:31.961Z,20.40
2022-08-14T23:30:33.999Z,20.40
2022-08-14T23:33:05.107Z,20.30
2022-08-14T23:35:34.473Z,20.30
2022-08-14T23:38:02.910Z,20.30
2022-08-14T23:40:32.610Z,20.30
2022-08-14T23:43:08.218Z,20.20
2022-08-14T23:45:40.004Z,20.20
2022-08-14T23:48:12.637Z,20.20
2022-08-14T23:50:44.208Z,20.10
2022-08-14T23:53:27.948Z,20.10
2022-08-14T23:56:10.353Z,20.10
2022-08-14T23:58:42.249Z,20.00
